TimeEST,TemperatureF,Dew PointF,Humidity,Sea Level PressureIn,VisibilityMPH,Wind Direction,Wind SpeedMPH,Gust SpeedMPH,PrecipitationIn,Events,Conditions,WindDirDegrees,DateUTC
9:55 AM,35.6,23.0,60,30.37,10.0,SSW,4.6,-,N/A,,Clear,200,2012-12-31 14:55:00
10:15 AM,37.4,23.0,56,30.37,10.0,SSW,5.8,-,N/A,,Clear,210,2012-12-31 15:15:00
10:35 AM,39.2,23.0,52,30.35,10.0,SSW,5.8,-,N/A,,Clear,200,2012-12-31 15:35:00
10:55 AM,39.2,21.2,49,30.35,10.0,SSW,4.6,-,N/A,,Clear,200,2012-12-31 15:55:00
11:15 AM,41.0,21.2,45,30.32,10.0,South,5.8,-,N/A,,Clear,190,2012-12-31 16:15:00
11:35 AM,42.8,23.0,46,30.32,10.0,South,5.8,-,N/A,,Clear,190,2012-12-31 16:35:00
11:55 AM,44.6,23.0,43,30.30,10.0,SW,6.9,-,N/A,,Clear,220,2012-12-31 16:55:00
12:15 PM,46.4,23.0,40,30.29,10.0,WSW,5.8,-,N/A,,Clear,240,2012-12-31 17:15:00
12:35 PM,46.4,23.0,40,30.27,10.0,SSW,4.6,-,N/A,,Clear,200,2012-12-31 17:35:00
12:55 PM,48.2,23.0,37,30.24,10.0,SW,6.9,-,N/A,,Clear,230,2012-12-31 17:55:00
1:15 PM,50.0,23.0,35,30.23,10.0,SW,5.8,-,N/A,,Clear,220,2012-12-31 18:15:00
1:35 PM,51.8,21.2,30,30.23,10.0,WSW,8.1,-,N/A,,Clear,240,2012-12-31 18:35:00
1:55 PM,53.6,19.4,26,30.21,10.0,SW,9.2,-,N/A,,Clear,220,2012-12-31 18:55:00
2:15 PM,51.8,19.4,28,30.21,10.0,SW,6.9,-,N/A,,Clear,220,2012-12-31 19:15:00
2:35 PM,51.8,19.4,28,30.21,10.0,SW,4.6,16.1,N/A,,Clear,230,2012-12-31 19:35:00
2:55 PM,51.8,19.4,28,30.20,10.0,SW,6.9,-,N/A,,Clear,220,2012-12-31 19:55:00
3:15 PM,51.8,21.2,30,30.20,10.0,SW,3.5,-,N/A,,Clear,220,2012-12-31 20:15:00
3:35 PM,51.8,23.0,33,30.20,10.0,SSW,8.1,-,N/A,,Clear,210,2012-12-31 20:35:00
3:55 PM,51.8,23.0,33,30.19,10.0,WSW,5.8,-,N/A,,Clear,240,2012-12-31 20:55:00
4:15 PM,51.8,23.0,33,30.19,10.0,SSW,3.5,-,N/A,,Clear,200,2012-12-31 21:15:00
4:35 PM,50.0,23.0,35,30.18,10.0,SSW,4.6,-,N/A,,Clear,200,2012-12-31 21:35:00
4:55 PM,50.0,21.2,32,30.18,10.0,SW,3.5,-,N/A,,Clear,220,2012-12-31 21:55:00
5:35 PM,46.4,23.0,40,30.19,10.0,Calm,Calm,-,N/A,,Scattered Clouds,0,2012-12-31 22:35:00
5:55 PM,46.4,23.0,40,30.19,10.0,Calm,Calm,-,N/A,,Scattered Clouds,0,2012-12-31 22:55:00
6:15 PM,46.4,24.8,43,30.18,10.0,South,3.5,-,N/A,,Mostly Cloudy,190,2012-12-31 23:15:00
6:35 PM,46.4,26.6,46,30.19,10.0,SSW,3.5,-,N/A,,Overcast,200,2012-12-31 23:35:00
6:55 PM,46.4,26.6,46,30.18,10.0,South,4.6,-,N/A,,Overcast,190,2012-12-31 23:55:00
7:15 PM,46.4,26.6,46,30.18,10.0,South,4.6,-,N/A,,Overcast,190,2013-01-01 00:15:00
7:35 PM,46.4,26.6,46,30.16,10.0,South,4.6,-,N/A,,Overcast,190,2013-01-01 00:35:00
7:55 PM,46.4,26.6,46,30.16,10.0,SSW,6.9,-,N/A,,Overcast,200,2013-01-01 00:55:00
8:15 PM,46.4,26.6,46,30.16,10.0,SSW,4.6,-,N/A,,Mostly Cloudy,210,2013-01-01 01:15:00
8:35 PM,46.4,26.6,46,30.16,10.0,SSW,3.5,-,N/A,,Scattered Clouds,210,2013-01-01 01:35:00
9:15 PM,46.4,26.6,46,30.13,10.0,SSW,4.6,-,N/A,,Scattered Clouds,200,2013-01-01 02:15:00
9:35 PM,46.4,26.6,46,30.13,10.0,SSW,4.6,-,N/A,,Clear,210,2013-01-01 02:35:00
10:15 PM,44.6,26.6,49,30.13,10.0,Calm,Calm,-,N/A,,Clear,0,2013-01-01 03:15:00
10:35 PM,44.6,26.6,49,30.14,10.0,SW,3.5,-,N/A,,Clear,220,2013-01-01 03:35:00
11:15 PM,44.6,26.6,49,30.12,10.0,SSW,3.5,-,N/A,,Clear,210,2013-01-01 04:15:00
11:35 PM,46.4,26.6,46,30.12,10.0,WSW,3.5,-,N/A,,Clear,240,2013-01-01 04:35:00
11:55 PM,46.4,26.6,46,30.10,10.0,SW,3.5,-,N/A,,Clear,220,2013-01-01 04:55:00